sensor_id;sensor_type;location;lat;lon;timestamp;P1;durP1;ratioP1;P2;durP2;ratioP2
43160;SDS011;40968;52.342;5.528;2022-10-28T00:01:10;21.95;;;7.72;;
43160;SDS011;40968;52.342;5.528;2022-10-28T00:03:40;22.15;;;7.15;;
43160;SDS011;40968;52.342;5.528;2022-10-28T00:06:08;20.15;;;8.07;;
43160;SDS011;40968;52.342;5.528;2022-10-28T00:08:38;21.42;;;7.90;;
43160;SDS011;40968;52.342;5.528;2022-10-28T00:11:05;23.42;;;7.47;;
43160;SDS011;40968;52.342;5.528;2022-10-28T00:13:34;22.70;;;8.00;;
43160;SDS011;40968;52.342;5.528;2022-10-28T00:16:05;29.75;;;7.80;;
43160;SDS011;40968;52.342;5.528;2022-10-28T00:18:33;27.88;;;7.95;;
43160;SDS011;40968;52.342;5.528;2022-10-28T00:21:00;27.75;;;8.35;;
43160;SDS011;40968;52.342;5.528;2022-10-28T00:23:27;24.02;;;7.70;;
43160;SDS011;40968;52.342;5.528;2022-10-28T00:26:02;19.90;;;8.05;;
43160;SDS011;40968;52.342;5.528;2022-10-28T00:28:29;21.70;;;7.63;;
43160;SDS011;40968;52.342;5.528;2022-10-28T00:31:01;26.33;;;7.53;;
43160;SDS011;40968;52.342;5.528;2022-10-28T00:33:28;24.40;;;7.70;;
43160;SDS011;40968;52.342;5.528;2022-10-28T00:35:55;29.35;;;7.55;;
43160;SDS011;40968;52.342;5.528;2022-10-28T00:38:21;23.00;;;7.10;;
43160;SDS011;40968;52.342;5.528;2022-10-28T00:40:48;22.17;;;7.30;;
43160;SDS011;40968;52.342;5.528;2022-10-28T00:43:16;31.27;;;7.40;;
43160;SDS011;40968;52.342;5.528;2022-10-28T00:45:58;26.17;;;7.32;;
43160;SDS011;40968;52.342;5.528;2022-10-28T00:48:24;27.02;;;6.97;;
43160;SDS011;40968;52.342;5.528;2022-10-28T00:50:51;29.70;;;6.78;;
43160;SDS011;40968;52.342;5.528;2022-10-28T00:53:18;19.65;;;6.82;;
43160;SDS011;40968;52.342;5.528;2022-10-28T00:55:47;27.70;;;6.85;;
43160;SDS011;40968;52.342;5.528;2022-10-28T00:58:16;17.27;;;6.00;;
43160;SDS011;40968;52.342;5.528;2022-10-28T01:00:46;23.23;;;6.68;;
43160;SDS011;40968;52.342;5.528;2022-10-28T01:03:12;28.63;;;7.30;;
43160;SDS011;40968;52.342;5.528;2022-10-28T01:05:40;16.67;;;7.20;;
43160;SDS011;40968;52.342;5.528;2022-10-28T01:08:07;26.35;;;6.63;;
43160;SDS011;40968;52.342;5.528;2022-10-28T01:10:37;25.20;;;7.03;;
43160;SDS011;40968;52.342;5.528;2022-10-28T01:13:25;21.05;;;6.97;;
43160;SDS011;40968;52.342;5.528;2022-10-28T01:16:04;31.98;;;8.20;;
43160;SDS011;40968;52.342;5.528;2022-10-28T01:18:38;31.35;;;7.38;;
43160;SDS011;40968;52.342;5.528;2022-10-28T01:21:21;19.60;;;6.88;;
43160;SDS011;40968;52.342;5.528;2022-10-28T01:24:05;20.48;;;7.15;;
43160;SDS011;40968;52.342;5.528;2022-10-28T01:29:57;21.63;;;6.82;;
43160;SDS011;40968;52.342;5.528;2022-10-28T01:32:33;22.17;;;7.53;;
43160;SDS011;40968;52.342;5.528;2022-10-28T01:35:08;23.75;;;6.65;;
43160;SDS011;40968;52.342;5.528;2022-10-28T01:37:45;25.65;;;8.13;;
43160;SDS011;40968;52.342;5.528;2022-10-28T01:40:19;18.40;;;6.82;;
43160;SDS011;40968;52.342;5.528;2022-10-28T01:42:52;22.70;;;6.85;;
43160;SDS011;40968;52.342;5.528;2022-10-28T01:45:24;22.55;;;6.78;;
43160;SDS011;40968;52.342;5.528;2022-10-28T01:47:56;20.20;;;7.15;;
43160;SDS011;40968;52.342;5.528;2022-10-28T01:50:27;27.48;;;7.50;;
43160;SDS011;40968;52.342;5.528;2022-10-28T01:52:59;23.80;;;7.13;;
43160;SDS011;40968;52.342;5.528;2022-10-28T01:55:29;29.92;;;7.28;;
43160;SDS011;40968;52.342;5.528;2022-10-28T01:58:00;19.70;;;6.90;;
43160;SDS011;40968;52.342;5.528;2022-10-28T02:00:30;26.27;;;8.07;;
43160;SDS011;40968;52.342;5.528;2022-10-28T02:02:59;20.85;;;7.18;;
43160;SDS011;40968;52.342;5.528;2022-10-28T02:05:40;19.08;;;7.40;;
43160;SDS011;40968;52.342;5.528;2022-10-28T02:11:06;26.70;;;7.85;;
43160;SDS011;40968;52.342;5.528;2022-10-28T02:13:51;48.38;;;8.45;;
43160;SDS011;40968;52.342;5.528;2022-10-28T02:16:27;26.73;;;7.28;;
43160;SDS011;40968;52.342;5.528;2022-10-28T02:19:02;26.92;;;7.10;;
43160;SDS011;40968;52.342;5.528;2022-10-28T02:21:40;35.60;;;7.57;;
43160;SDS011;40968;52.342;5.528;2022-10-28T02:24:15;23.23;;;7.68;;
43160;SDS011;40968;52.342;5.528;2022-10-28T02:26:46;21.73;;;7.55;;
43160;SDS011;40968;52.342;5.528;2022-10-28T02:29:19;19.20;;;7.25;;
43160;SDS011;40968;52.342;5.528;2022-10-28T02:31:55;21.27;;;8.32;;
43160;SDS011;40968;52.342;5.528;2022-10-28T02:34:28;30.70;;;8.73;;
43160;SDS011;40968;52.342;5.528;2022-10-28T02:36:58;27.30;;;8.07;;
43160;SDS011;40968;52.342;5.528;2022-10-28T02:39:27;20.45;;;7.55;;
43160;SDS011;40968;52.342;5.528;2022-10-28T02:41:57;22.65;;;7.60;;
43160;SDS011;40968;52.342;5.528;2022-10-28T02:44:29;22.10;;;7.65;;
43160;SDS011;40968;52.342;5.528;2022-10-28T02:47:00;30.73;;;9.13;;
43160;SDS011;40968;52.342;5.528;2022-10-28T02:49:33;23.60;;;8.05;;
43160;SDS011;40968;52.342;5.528;2022-10-28T02:52:03;23.38;;;8.05;;
43160;SDS011;40968;52.342;5.528;2022-10-28T02:54:33;24.33;;;7.60;;
43160;SDS011;40968;52.342;5.528;2022-10-28T02:57:05;25.58;;;7.95;;
43160;SDS011;40968;52.342;5.528;2022-10-28T02:59:34;24.07;;;7.83;;
43160;SDS011;40968;52.342;5.528;2022-10-28T03:02:01;25.70;;;8.05;;
43160;SDS011;40968;52.342;5.528;2022-10-28T03:04:27;28.02;;;7.93;;
43160;SDS011;40968;52.342;5.528;2022-10-28T03:06:55;17.33;;;6.80;;
43160;SDS011;40968;52.342;5.528;2022-10-28T03:09:22;22.88;;;7.57;;
43160;SDS011;40968;52.342;5.528;2022-10-28T03:11:49;26.52;;;7.63;;
43160;SDS011;40968;52.342;5.528;2022-10-28T03:14:15;31.13;;;8.30;;
43160;SDS011;40968;52.342;5.528;2022-10-28T03:16:42;27.13;;;7.43;;
43160;SDS011;40968;52.342;5.528;2022-10-28T03:19:08;27.27;;;8.73;;
43160;SDS011;40968;52.342;5.528;2022-10-28T03:21:35;28.90;;;7.50;;
43160;SDS011;40968;52.342;5.528;2022-10-28T03:24:03;27.42;;;8.57;;
43160;SDS011;40968;52.342;5.528;2022-10-28T03:26:30;26.13;;;7.32;;
43160;SDS011;40968;52.342;5.528;2022-10-28T03:28:56;24.95;;;7.55;;
43160;SDS011;40968;52.342;5.528;2022-10-28T03:31:23;27.17;;;8.23;;
43160;SDS011;40968;52.342;5.528;2022-10-28T03:33:49;19.73;;;6.53;;
43160;SDS011;40968;52.342;5.528;2022-10-28T03:36:16;23.40;;;7.82;;
43160;SDS011;40968;52.342;5.528;2022-10-28T03:38:42;21.85;;;8.50;;
43160;SDS011;40968;52.342;5.528;2022-10-28T03:41:10;21.08;;;7.35;;
43160;SDS011;40968;52.342;5.528;2022-10-28T03:43:37;28.23;;;7.88;;
43160;SDS011;40968;52.342;5.528;2022-10-28T03:46:03;22.92;;;8.07;;
43160;SDS011;40968;52.342;5.528;2022-10-28T03:48:30;37.50;;;9.23;;
43160;SDS011;40968;52.342;5.528;2022-10-28T03:50:57;22.70;;;7.30;;
43160;SDS011;40968;52.342;5.528;2022-10-28T03:53:24;27.25;;;8.38;;
43160;SDS011;40968;52.342;5.528;2022-10-28T03:55:51;22.30;;;7.72;;
43160;SDS011;40968;52.342;5.528;2022-10-28T03:58:19;27.27;;;8.48;;
43160;SDS011;40968;52.342;5.528;2022-10-28T04:00:47;22.58;;;7.43;;
43160;SDS011;40968;52.342;5.528;2022-10-28T04:03:14;22.90;;;7.50;;
43160;SDS011;40968;52.342;5.528;2022-10-28T04:05:40;33.83;;;8.82;;
43160;SDS011;40968;52.342;5.528;2022-10-28T04:08:07;27.15;;;8.07;;
43160;SDS011;40968;52.342;5.528;2022-10-28T04:10:33;27.45;;;8.40;;
43160;SDS011;40968;52.342;5.528;2022-10-28T04:13:00;23.33;;;7.50;;
43160;SDS011;40968;52.342;5.528;2022-10-28T04:15:29;25.83;;;7.97;;
43160;SDS011;40968;52.342;5.528;2022-10-28T04:17:55;26.08;;;7.95;;
43160;SDS011;40968;52.342;5.528;2022-10-28T04:20:22;28.10;;;7.85;;
43160;SDS011;40968;52.342;5.528;2022-10-28T04:22:49;29.45;;;8.27;;
43160;SDS011;40968;52.342;5.528;2022-10-28T04:25:15;34.42;;;8.02;;
43160;SDS011;40968;52.342;5.528;2022-10-28T04:27:42;18.90;;;7.07;;
43160;SDS011;40968;52.342;5.528;2022-10-28T04:30:09;24.92;;;6.93;;
43160;SDS011;40968;52.342;5.528;2022-10-28T04:32:40;26.92;;;7.40;;
43160;SDS011;40968;52.342;5.528;2022-10-28T04:35:08;24.23;;;7.63;;
43160;SDS011;40968;52.342;5.528;2022-10-28T04:37:34;20.42;;;7.30;;
43160;SDS011;40968;52.342;5.528;2022-10-28T04:40:01;22.48;;;7.63;;
43160;SDS011;40968;52.342;5.528;2022-10-28T04:42:28;28.88;;;7.18;;
43160;SDS011;40968;52.342;5.528;2022-10-28T04:44:55;21.58;;;6.30;;
43160;SDS011;40968;52.342;5.528;2022-10-28T04:47:21;25.65;;;7.40;;
43160;SDS011;40968;52.342;5.528;2022-10-28T04:49:49;26.30;;;8.00;;
43160;SDS011;40968;52.342;5.528;2022-10-28T04:52:16;25.00;;;7.43;;
43160;SDS011;40968;52.342;5.528;2022-10-28T04:54:43;22.35;;;7.85;;
43160;SDS011;40968;52.342;5.528;2022-10-28T04:57:09;26.50;;;8.05;;
43160;SDS011;40968;52.342;5.528;2022-10-28T04:59:36;17.85;;;6.15;;
43160;SDS011;40968;52.342;5.528;2022-10-28T05:02:02;21.02;;;6.65;;
43160;SDS011;40968;52.342;5.528;2022-10-28T05:04:29;24.13;;;7.60;;
43160;SDS011;40968;52.342;5.528;2022-10-28T05:06:57;21.92;;;6.40;;
43160;SDS011;40968;52.342;5.528;2022-10-28T05:09:23;23.80;;;7.03;;
43160;SDS011;40968;52.342;5.528;2022-10-28T05:11:50;27.10;;;7.15;;
43160;SDS011;40968;52.342;5.528;2022-10-28T05:14:16;20.42;;;7.25;;
43160;SDS011;40968;52.342;5.528;2022-10-28T05:16:43;26.60;;;8.20;;
43160;SDS011;40968;52.342;5.528;2022-10-28T05:19:09;27.98;;;7.28;;
43160;SDS011;40968;52.342;5.528;2022-10-28T05:21:36;21.15;;;6.78;;
43160;SDS011;40968;52.342;5.528;2022-10-28T05:24:04;22.88;;;6.80;;
43160;SDS011;40968;52.342;5.528;2022-10-28T05:26:31;26.58;;;6.88;;
43160;SDS011;40968;52.342;5.528;2022-10-28T05:28:58;27.45;;;7.63;;
43160;SDS011;40968;52.342;5.528;2022-10-28T05:31:24;23.77;;;7.15;;
43160;SDS011;40968;52.342;5.528;2022-10-28T05:33:51;18.75;;;6.00;;
43160;SDS011;40968;52.342;5.528;2022-10-28T05:36:18;26.27;;;7.35;;
43160;SDS011;40968;52.342;5.528;2022-10-28T05:38:44;26.05;;;7.80;;
43160;SDS011;40968;52.342;5.528;2022-10-28T05:41:12;36.60;;;7.50;;
43160;SDS011;40968;52.342;5.528;2022-10-28T05:43:39;20.27;;;7.43;;
43160;SDS011;40968;52.342;5.528;2022-10-28T05:46:05;21.23;;;7.20;;
43160;SDS011;40968;52.342;5.528;2022-10-28T05:48:32;17.88;;;6.28;;
43160;SDS011;40968;52.342;5.528;2022-10-28T05:50:58;29.83;;;7.20;;
43160;SDS011;40968;52.342;5.528;2022-10-28T05:53:25;33.00;;;7.93;;
43160;SDS011;40968;52.342;5.528;2022-10-28T05:55:51;18.60;;;6.75;;
43160;SDS011;40968;52.342;5.528;2022-10-28T05:58:19;20.48;;;6.50;;
43160;SDS011;40968;52.342;5.528;2022-10-28T06:00:46;29.17;;;7.18;;
43160;SDS011;40968;52.342;5.528;2022-10-28T06:03:13;21.90;;;6.20;;
43160;SDS011;40968;52.342;5.528;2022-10-28T06:05:40;23.15;;;7.55;;
43160;SDS011;40968;52.342;5.528;2022-10-28T06:08:08;36.13;;;8.30;;
43160;SDS011;40968;52.342;5.528;2022-10-28T06:10:36;23.55;;;7.07;;
43160;SDS011;40968;52.342;5.528;2022-10-28T06:13:02;22.15;;;7.35;;
43160;SDS011;40968;52.342;5.528;2022-10-28T06:15:30;30.27;;;7.43;;
43160;SDS011;40968;52.342;5.528;2022-10-28T06:17:57;24.35;;;6.78;;
43160;SDS011;40968;52.342;5.528;2022-10-28T06:20:23;24.30;;;7.18;;
43160;SDS011;40968;52.342;5.528;2022-10-28T06:22:51;26.17;;;7.32;;
43160;SDS011;40968;52.342;5.528;2022-10-28T06:25:19;23.33;;;6.90;;
43160;SDS011;40968;52.342;5.528;2022-10-28T06:27:51;23.30;;;6.70;;
43160;SDS011;40968;52.342;5.528;2022-10-28T06:30:18;22.70;;;7.40;;
43160;SDS011;40968;52.342;5.528;2022-10-28T06:32:45;23.67;;;7.50;;
43160;SDS011;40968;52.342;5.528;2022-10-28T06:35:12;19.67;;;7.28;;
43160;SDS011;40968;52.342;5.528;2022-10-28T06:37:39;24.55;;;6.32;;
43160;SDS011;40968;52.342;5.528;2022-10-28T06:40:06;27.92;;;6.63;;
43160;SDS011;40968;52.342;5.528;2022-10-28T06:42:33;21.77;;;6.80;;
43160;SDS011;40968;52.342;5.528;2022-10-28T06:45:00;24.70;;;6.97;;
43160;SDS011;40968;52.342;5.528;2022-10-28T06:47:26;30.98;;;7.43;;
43160;SDS011;40968;52.342;5.528;2022-10-28T06:49:54;26.83;;;7.82;;
43160;SDS011;40968;52.342;5.528;2022-10-28T06:52:21;29.92;;;7.78;;
43160;SDS011;40968;52.342;5.528;2022-10-28T06:54:47;21.67;;;7.10;;
43160;SDS011;40968;52.342;5.528;2022-10-28T06:57:14;27.50;;;7.45;;
43160;SDS011;40968;52.342;5.528;2022-10-28T06:59:41;27.20;;;7.53;;
43160;SDS011;40968;52.342;5.528;2022-10-28T07:02:08;20.42;;;6.47;;
43160;SDS011;40968;52.342;5.528;2022-10-28T07:04:35;27.23;;;7.28;;
43160;SDS011;40968;52.342;5.528;2022-10-28T07:07:03;23.67;;;7.82;;
43160;SDS011;40968;52.342;5.528;2022-10-28T07:09:30;21.58;;;6.60;;
43160;SDS011;40968;52.342;5.528;2022-10-28T07:11:57;26.35;;;7.85;;
43160;SDS011;40968;52.342;5.528;2022-10-28T07:14:24;20.00;;;6.88;;
43160;SDS011;40968;52.342;5.528;2022-10-28T07:16:51;21.27;;;6.85;;
43160;SDS011;40968;52.342;5.528;2022-10-28T07:19:18;23.20;;;6.80;;
43160;SDS011;40968;52.342;5.528;2022-10-28T07:21:46;28.90;;;7.38;;
43160;SDS011;40968;52.342;5.528;2022-10-28T07:24:13;21.45;;;7.43;;
43160;SDS011;40968;52.342;5.528;2022-10-28T07:26:40;33.95;;;7.57;;
43160;SDS011;40968;52.342;5.528;2022-10-28T07:29:07;23.77;;;7.68;;
43160;SDS011;40968;52.342;5.528;2022-10-28T07:31:33;24.65;;;6.88;;
43160;SDS011;40968;52.342;5.528;2022-10-28T07:34:00;20.90;;;7.38;;
43160;SDS011;40968;52.342;5.528;2022-10-28T07:36:27;22.08;;;7.30;;
43160;SDS011;40968;52.342;5.528;2022-10-28T07:38:53;22.65;;;7.20;;
43160;SDS011;40968;52.342;5.528;2022-10-28T07:41:23;21.77;;;6.43;;
43160;SDS011;40968;52.342;5.528;2022-10-28T07:43:53;21.65;;;6.85;;
43160;SDS011;40968;52.342;5.528;2022-10-28T07:46:20;20.05;;;6.82;;
43160;SDS011;40968;52.342;5.528;2022-10-28T07:48:47;22.65;;;6.80;;
43160;SDS011;40968;52.342;5.528;2022-10-28T07:51:13;39.67;;;7.43;;
43160;SDS011;40968;52.342;5.528;2022-10-28T07:53:40;22.65;;;6.57;;
43160;SDS011;40968;52.342;5.528;2022-10-28T07:56:08;28.20;;;7.57;;
43160;SDS011;40968;52.342;5.528;2022-10-28T07:58:38;25.50;;;7.28;;
43160;SDS011;40968;52.342;5.528;2022-10-28T08:01:06;30.92;;;6.50;;
43160;SDS011;40968;52.342;5.528;2022-10-28T08:03:34;39.75;;;8.18;;
43160;SDS011;40968;52.342;5.528;2022-10-28T08:06:01;24.35;;;6.82;;
43160;SDS011;40968;52.342;5.528;2022-10-28T08:08:29;25.35;;;7.00;;
43160;SDS011;40968;52.342;5.528;2022-10-28T08:10:56;25.67;;;6.93;;
43160;SDS011;40968;52.342;5.528;2022-10-28T08:13:23;21.83;;;6.75;;
43160;SDS011;40968;52.342;5.528;2022-10-28T08:15:53;24.45;;;7.40;;
43160;SDS011;40968;52.342;5.528;2022-10-28T08:20:47;24.02;;;6.25;;
43160;SDS011;40968;52.342;5.528;2022-10-28T08:23:14;20.13;;;6.75;;
43160;SDS011;40968;52.342;5.528;2022-10-28T08:25:46;20.17;;;6.10;;
43160;SDS011;40968;52.342;5.528;2022-10-28T08:28:13;20.58;;;5.78;;
43160;SDS011;40968;52.342;5.528;2022-10-28T08:30:40;17.70;;;5.78;;
43160;SDS011;40968;52.342;5.528;2022-10-28T08:33:08;28.75;;;6.45;;
43160;SDS011;40968;52.342;5.528;2022-10-28T08:35:35;22.98;;;6.82;;
43160;SDS011;40968;52.342;5.528;2022-10-28T08:38:01;25.27;;;6.13;;
43160;SDS011;40968;52.342;5.528;2022-10-28T08:40:30;23.20;;;6.70;;
43160;SDS011;40968;52.342;5.528;2022-10-28T08:43:03;34.42;;;6.57;;
43160;SDS011;40968;52.342;5.528;2022-10-28T08:45:39;24.40;;;6.07;;
43160;SDS011;40968;52.342;5.528;2022-10-28T08:48:14;31.05;;;6.82;;
43160;SDS011;40968;52.342;5.528;2022-10-28T08:50:50;28.75;;;6.47;;
43160;SDS011;40968;52.342;5.528;2022-10-28T08:53:24;23.42;;;6.07;;
43160;SDS011;40968;52.342;5.528;2022-10-28T08:55:55;21.48;;;6.15;;
43160;SDS011;40968;52.342;5.528;2022-10-28T08:58:32;18.83;;;6.07;;
43160;SDS011;40968;52.342;5.528;2022-10-28T09:01:02;18.15;;;6.47;;
43160;SDS011;40968;52.342;5.528;2022-10-28T09:03:36;20.52;;;6.03;;
43160;SDS011;40968;52.342;5.528;2022-10-28T09:06:07;21.55;;;6.68;;
43160;SDS011;40968;52.342;5.528;2022-10-28T09:08:37;24.35;;;6.32;;
43160;SDS011;40968;52.342;5.528;2022-10-28T09:11:07;23.60;;;5.82;;
43160;SDS011;40968;52.342;5.528;2022-10-28T09:13:56;33.40;;;6.95;;
43160;SDS011;40968;52.342;5.528;2022-10-28T09:16:35;24.20;;;6.97;;
43160;SDS011;40968;52.342;5.528;2022-10-28T09:19:14;23.52;;;6.28;;
43160;SDS011;40968;52.342;5.528;2022-10-28T09:21:55;19.95;;;5.88;;
43160;SDS011;40968;52.342;5.528;2022-10-28T09:24:37;24.80;;;5.82;;
43160;SDS011;40968;52.342;5.528;2022-10-28T09:27:12;21.48;;;6.18;;
43160;SDS011;40968;52.342;5.528;2022-10-28T09:29:49;26.38;;;6.65;;
43160;SDS011;40968;52.342;5.528;2022-10-28T09:32:24;22.73;;;5.75;;
43160;SDS011;40968;52.342;5.528;2022-10-28T09:35:02;26.45;;;6.65;;
43160;SDS011;40968;52.342;5.528;2022-10-28T09:37:36;20.58;;;5.82;;
43160;SDS011;40968;52.342;5.528;2022-10-28T09:40:11;19.00;;;5.75;;
43160;SDS011;40968;52.342;5.528;2022-10-28T09:42:43;23.35;;;6.90;;
43160;SDS011;40968;52.342;5.528;2022-10-28T09:45:26;22.33;;;6.18;;
43160;SDS011;40968;52.342;5.528;2022-10-28T09:47:57;20.30;;;5.97;;
43160;SDS011;40968;52.342;5.528;2022-10-28T09:50:29;26.75;;;6.28;;
43160;SDS011;40968;52.342;5.528;2022-10-28T09:52:58;18.95;;;6.00;;
43160;SDS011;40968;52.342;5.528;2022-10-28T09:55:33;22.48;;;6.25;;
43160;SDS011;40968;52.342;5.528;2022-10-28T09:58:01;28.98;;;6.47;;
43160;SDS011;40968;52.342;5.528;2022-10-28T10:00:28;22.65;;;6.43;;
43160;SDS011;40968;52.342;5.528;2022-10-28T10:02:55;24.50;;;5.90;;
43160;SDS011;40968;52.342;5.528;2022-10-28T10:05:23;27.88;;;6.15;;
43160;SDS011;40968;52.342;5.528;2022-10-28T10:07:53;26.10;;;6.07;;
43160;SDS011;40968;52.342;5.528;2022-10-28T10:12:49;20.08;;;5.75;;
43160;SDS011;40968;52.342;5.528;2022-10-28T10:15:20;19.85;;;5.30;;
43160;SDS011;40968;52.342;5.528;2022-10-28T10:17:52;20.90;;;5.43;;
43160;SDS011;40968;52.342;5.528;2022-10-28T10:20:22;24.38;;;5.45;;
43160;SDS011;40968;52.342;5.528;2022-10-28T10:22:48;21.27;;;5.63;;
43160;SDS011;40968;52.342;5.528;2022-10-28T10:25:25;23.15;;;5.82;;
43160;SDS011;40968;52.342;5.528;2022-10-28T10:27:58;19.60;;;5.93;;
43160;SDS011;40968;52.342;5.528;2022-10-28T10:30:28;25.48;;;5.70;;
43160;SDS011;40968;52.342;5.528;2022-10-28T10:32:57;25.85;;;5.82;;
43160;SDS011;40968;52.342;5.528;2022-10-28T10:35:24;28.52;;;6.30;;
43160;SDS011;40968;52.342;5.528;2022-10-28T10:37:54;28.10;;;5.93;;
43160;SDS011;40968;52.342;5.528;2022-10-28T10:40:23;24.45;;;6.40;;
43160;SDS011;40968;52.342;5.528;2022-10-28T10:42:55;15.38;;;5.50;;
43160;SDS011;40968;52.342;5.528;2022-10-28T10:45:39;27.30;;;5.40;;
43160;SDS011;40968;52.342;5.528;2022-10-28T10:48:09;19.67;;;5.57;;
43160;SDS011;40968;52.342;5.528;2022-10-28T10:50:38;27.52;;;6.28;;
43160;SDS011;40968;52.342;5.528;2022-10-28T10:53:05;22.42;;;5.80;;
43160;SDS011;40968;52.342;5.528;2022-10-28T10:55:43;24.55;;;6.38;;
43160;SDS011;40968;52.342;5.528;2022-10-28T10:58:16;18.60;;;5.03;;
43160;SDS011;40968;52.342;5.528;2022-10-28T11:00:48;20.90;;;6.10;;
43160;SDS011;40968;52.342;5.528;2022-10-28T11:03:18;20.10;;;5.50;;
43160;SDS011;40968;52.342;5.528;2022-10-28T11:05:48;21.40;;;5.80;;
43160;SDS011;40968;52.342;5.528;2022-10-28T11:08:23;13.50;;;5.07;;
43160;SDS011;40968;52.342;5.528;2022-10-28T11:11:07;19.33;;;6.25;;
43160;SDS011;40968;52.342;5.528;2022-10-28T11:13:38;20.30;;;5.40;;
43160;SDS011;40968;52.342;5.528;2022-10-28T11:16:06;19.88;;;5.90;;
43160;SDS011;40968;52.342;5.528;2022-10-28T11:18:42;17.13;;;5.50;;
43160;SDS011;40968;52.342;5.528;2022-10-28T11:21:13;19.63;;;5.68;;
43160;SDS011;40968;52.342;5.528;2022-10-28T11:24:04;20.80;;;5.20;;
43160;SDS011;40968;52.342;5.528;2022-10-28T11:26:50;24.00;;;6.40;;
43160;SDS011;40968;52.342;5.528;2022-10-28T11:29:24;27.55;;;6.63;;
43160;SDS011;40968;52.342;5.528;2022-10-28T11:31:59;19.88;;;5.05;;
43160;SDS011;40968;52.342;5.528;2022-10-28T11:34:43;24.98;;;5.95;;
43160;SDS011;40968;52.342;5.528;2022-10-28T11:37:20;18.02;;;5.93;;
43160;SDS011;40968;52.342;5.528;2022-10-28T11:40:01;20.95;;;5.63;;
43160;SDS011;40968;52.342;5.528;2022-10-28T11:42:42;16.95;;;5.35;;
43160;SDS011;40968;52.342;5.528;2022-10-28T11:45:15;25.85;;;6.35;;
43160;SDS011;40968;52.342;5.528;2022-10-28T11:47:57;25.15;;;6.00;;
43160;SDS011;40968;52.342;5.528;2022-10-28T11:50:48;25.40;;;5.43;;
43160;SDS011;40968;52.342;5.528;2022-10-28T11:53:32;17.52;;;5.68;;
43160;SDS011;40968;52.342;5.528;2022-10-28T11:56:11;22.73;;;5.45;;
43160;SDS011;40968;52.342;5.528;2022-10-28T11:58:51;16.45;;;5.65;;
43160;SDS011;40968;52.342;5.528;2022-10-28T12:01:32;26.90;;;5.40;;
43160;SDS011;40968;52.342;5.528;2022-10-28T12:04:19;24.23;;;6.72;;
43160;SDS011;40968;52.342;5.528;2022-10-28T12:07:01;22.13;;;5.60;;
43160;SDS011;40968;52.342;5.528;2022-10-28T12:09:41;23.45;;;6.85;;
43160;SDS011;40968;52.342;5.528;2022-10-28T12:12:21;27.30;;;6.55;;
43160;SDS011;40968;52.342;5.528;2022-10-28T12:14:57;22.25;;;6.00;;
43160;SDS011;40968;52.342;5.528;2022-10-28T12:17:37;23.55;;;5.68;;
43160;SDS011;40968;52.342;5.528;2022-10-28T12:20:10;24.45;;;5.82;;
43160;SDS011;40968;52.342;5.528;2022-10-28T12:22:44;20.80;;;6.18;;
43160;SDS011;40968;52.342;5.528;2022-10-28T12:25:13;22.80;;;5.80;;
43160;SDS011;40968;52.342;5.528;2022-10-28T12:27:44;18.27;;;5.93;;
43160;SDS011;40968;52.342;5.528;2022-10-28T12:30:18;31.55;;;5.60;;
43160;SDS011;40968;52.342;5.528;2022-10-28T12:32:50;18.05;;;5.97;;
43160;SDS011;40968;52.342;5.528;2022-10-28T12:35:20;15.55;;;5.32;;
43160;SDS011;40968;52.342;5.528;2022-10-28T12:37:51;26.15;;;6.40;;
43160;SDS011;40968;52.342;5.528;2022-10-28T12:40:21;23.13;;;5.47;;
43160;SDS011;40968;52.342;5.528;2022-10-28T12:42:52;20.10;;;5.47;;
43160;SDS011;40968;52.342;5.528;2022-10-28T12:45:24;17.92;;;5.10;;
43160;SDS011;40968;52.342;5.528;2022-10-28T12:47:56;25.73;;;6.00;;
43160;SDS011;40968;52.342;5.528;2022-10-28T12:50:26;20.42;;;5.10;;
43160;SDS011;40968;52.342;5.528;2022-10-28T12:53:11;18.08;;;5.47;;
43160;SDS011;40968;52.342;5.528;2022-10-28T12:55:45;15.07;;;4.78;;
43160;SDS011;40968;52.342;5.528;2022-10-28T12:58:17;26.10;;;5.75;;
43160;SDS011;40968;52.342;5.528;2022-10-28T13:00:51;22.48;;;5.82;;
43160;SDS011;40968;52.342;5.528;2022-10-28T13:03:21;22.52;;;5.40;;
43160;SDS011;40968;52.342;5.528;2022-10-28T13:05:50;17.00;;;4.90;;
43160;SDS011;40968;52.342;5.528;2022-10-28T13:13:58;17.10;;;5.15;;
43160;SDS011;40968;52.342;5.528;2022-10-28T13:16:40;27.15;;;5.47;;
43160;SDS011;40968;52.342;5.528;2022-10-28T13:19:27;25.92;;;5.93;;
43160;SDS011;40968;52.342;5.528;2022-10-28T13:22:11;18.65;;;5.50;;
43160;SDS011;40968;52.342;5.528;2022-10-28T13:24:54;27.90;;;5.93;;
43160;SDS011;40968;52.342;5.528;2022-10-28T13:27:29;23.83;;;6.25;;
43160;SDS011;40968;52.342;5.528;2022-10-28T13:29:56;18.23;;;4.93;;
43160;SDS011;40968;52.342;5.528;2022-10-28T13:32:31;23.00;;;5.85;;
43160;SDS011;40968;52.342;5.528;2022-10-28T13:35:08;19.27;;;5.40;;
43160;SDS011;40968;52.342;5.528;2022-10-28T13:37:37;28.00;;;5.88;;
43160;SDS011;40968;52.342;5.528;2022-10-28T13:40:09;20.98;;;5.45;;
43160;SDS011;40968;52.342;5.528;2022-10-28T13:42:46;22.38;;;5.63;;
43160;SDS011;40968;52.342;5.528;2022-10-28T13:51:32;26.97;;;5.93;;
43160;SDS011;40968;52.342;5.528;2022-10-28T13:53:59;34.38;;;5.90;;
43160;SDS011;40968;52.342;5.528;2022-10-28T13:56:44;23.88;;;5.35;;
43160;SDS011;40968;52.342;5.528;2022-10-28T13:59:23;24.52;;;5.32;;
43160;SDS011;40968;52.342;5.528;2022-10-28T14:01:54;27.67;;;6.50;;
43160;SDS011;40968;52.342;5.528;2022-10-28T14:04:28;21.50;;;5.07;;
43160;SDS011;40968;52.342;5.528;2022-10-28T14:07:00;28.67;;;6.13;;
43160;SDS011;40968;52.342;5.528;2022-10-28T14:09:30;25.83;;;5.10;;
43160;SDS011;40968;52.342;5.528;2022-10-28T14:12:02;17.98;;;4.70;;
43160;SDS011;40968;52.342;5.528;2022-10-28T14:14:32;23.90;;;5.40;;
43160;SDS011;40968;52.342;5.528;2022-10-28T14:16:59;15.38;;;4.60;;
43160;SDS011;40968;52.342;5.528;2022-10-28T14:19:25;20.25;;;5.75;;
43160;SDS011;40968;52.342;5.528;2022-10-28T14:21:55;25.95;;;5.32;;
43160;SDS011;40968;52.342;5.528;2022-10-28T14:24:29;28.05;;;5.32;;
43160;SDS011;40968;52.342;5.528;2022-10-28T14:30:13;17.33;;;5.30;;
43160;SDS011;40968;52.342;5.528;2022-10-28T14:32:49;30.70;;;5.13;;
43160;SDS011;40968;52.342;5.528;2022-10-28T14:35:28;21.75;;;5.10;;
43160;SDS011;40968;52.342;5.528;2022-10-28T14:38:17;21.92;;;4.97;;
43160;SDS011;40968;52.342;5.528;2022-10-28T14:41:04;18.83;;;4.90;;
43160;SDS011;40968;52.342;5.528;2022-10-28T14:43:39;23.67;;;5.03;;
43160;SDS011;40968;52.342;5.528;2022-10-28T14:46:23;18.25;;;4.90;;
43160;SDS011;40968;52.342;5.528;2022-10-28T14:48:59;19.88;;;5.20;;
43160;SDS011;40968;52.342;5.528;2022-10-28T14:51:35;22.15;;;5.40;;
43160;SDS011;40968;52.342;5.528;2022-10-28T14:54:06;25.92;;;5.43;;
43160;SDS011;40968;52.342;5.528;2022-10-28T14:56:37;28.88;;;6.13;;
43160;SDS011;40968;52.342;5.528;2022-10-28T14:59:14;18.85;;;4.95;;
43160;SDS011;40968;52.342;5.528;2022-10-28T15:01:50;20.10;;;5.68;;
43160;SDS011;40968;52.342;5.528;2022-10-28T15:04:24;17.98;;;5.13;;
43160;SDS011;40968;52.342;5.528;2022-10-28T15:06:52;18.70;;;4.65;;
43160;SDS011;40968;52.342;5.528;2022-10-28T15:09:20;17.38;;;5.10;;
43160;SDS011;40968;52.342;5.528;2022-10-28T15:11:49;24.70;;;5.95;;
43160;SDS011;40968;52.342;5.528;2022-10-28T15:17:09;30.17;;;5.93;;
43160;SDS011;40968;52.342;5.528;2022-10-28T15:19:38;21.58;;;5.43;;
43160;SDS011;40968;52.342;5.528;2022-10-28T15:22:11;32.13;;;6.10;;
43160;SDS011;40968;52.342;5.528;2022-10-28T15:24:40;27.13;;;5.93;;